sensor_id;sensor_type;location;lat;lon;timestamp;temperature;humidity
32217;DHT22;67098;51.140;4.088;2023-05-29T00:02:14;16.90;89.40
32217;DHT22;67098;51.140;4.088;2023-05-29T00:04:40;16.80;89.90
32217;DHT22;67098;51.140;4.088;2023-05-29T00:07:06;16.70;90.00
32217;DHT22;67098;51.140;4.088;2023-05-29T00:09:32;16.60;90.10
32217;DHT22;67098;51.140;4.088;2023-05-29T00:11:57;16.60;90.30
32217;DHT22;67098;51.140;4.088;2023-05-29T00:14:23;16.40;90.40
32217;DHT22;67098;51.140;4.088;2023-05-29T00:16:50;16.40;90.50
32217;DHT22;67098;51.140;4.088;2023-05-29T00:19:16;16.50;90.30
32217;DHT22;67098;51.140;4.088;2023-05-29T00:21:43;16.50;90.20
32217;DHT22;67098;51.140;4.088;2023-05-29T00:24:08;16.50;90.10
32217;DHT22;67098;51.140;4.088;2023-05-29T00:26:34;16.50;90.00
32217;DHT22;67098;51.140;4.088;2023-05-29T00:29:00;16.30;90.10
32217;DHT22;67098;51.140;4.088;2023-05-29T00:31:26;16.30;90.10
32217;DHT22;67098;51.140;4.088;2023-05-29T00:33:51;16.30;90.20
32217;DHT22;67098;51.140;4.088;2023-05-29T00:36:17;16.20;90.00
32217;DHT22;67098;51.140;4.088;2023-05-29T00:38:43;16.20;90.00
32217;DHT22;67098;51.140;4.088;2023-05-29T00:41:14;16.20;90.00
32217;DHT22;67098;51.140;4.088;2023-05-29T00:43:43;16.10;90.10
32217;DHT22;67098;51.140;4.088;2023-05-29T00:46:13;16.00;90.10
32217;DHT22;67098;51.140;4.088;2023-05-29T00:48:40;16.10;90.00
32217;DHT22;67098;51.140;4.088;2023-05-29T00:51:07;16.10;89.70
32217;DHT22;67098;51.140;4.088;2023-05-29T00:53:34;16.00;89.90
32217;DHT22;67098;51.140;4.088;2023-05-29T00:56:00;15.90;89.00
32217;DHT22;67098;51.140;4.088;2023-05-29T00:58:27;15.80;89.20
32217;DHT22;67098;51.140;4.088;2023-05-29T01:00:53;15.70;88.50
32217;DHT22;67098;51.140;4.088;2023-05-29T01:03:20;15.60;88.70
32217;DHT22;67098;51.140;4.088;2023-05-29T01:05:48;15.40;88.30
32217;DHT22;67098;51.140;4.088;2023-05-29T01:08:14;15.40;88.20
32217;DHT22;67098;51.140;4.088;2023-05-29T01:10:40;15.50;87.50
32217;DHT22;67098;51.140;4.088;2023-05-29T01:13:17;15.30;87.70
32217;DHT22;67098;51.140;4.088;2023-05-29T01:15:58;15.30;87.90
32217;DHT22;67098;51.140;4.088;2023-05-29T01:21:20;15.10;88.10
32217;DHT22;67098;51.140;4.088;2023-05-29T01:24:13;15.20;87.50
32217;DHT22;67098;51.140;4.088;2023-05-29T01:27:00;15.10;87.40
32217;DHT22;67098;51.140;4.088;2023-05-29T01:29:29;15.00;87.00
32217;DHT22;67098;51.140;4.088;2023-05-29T01:31:57;15.00;87.10
32217;DHT22;67098;51.140;4.088;2023-05-29T01:34:23;15.00;86.80
32217;DHT22;67098;51.140;4.088;2023-05-29T01:36:49;15.00;86.50
32217;DHT22;67098;51.140;4.088;2023-05-29T01:39:15;15.00;86.20
32217;DHT22;67098;51.140;4.088;2023-05-29T01:41:43;15.10;86.20
32217;DHT22;67098;51.140;4.088;2023-05-29T01:44:10;15.10;85.80
32217;DHT22;67098;51.140;4.088;2023-05-29T01:46:39;15.20;85.50
32217;DHT22;67098;51.140;4.088;2023-05-29T01:49:05;15.20;85.10
32217;DHT22;67098;51.140;4.088;2023-05-29T01:51:31;15.20;85.10
32217;DHT22;67098;51.140;4.088;2023-05-29T01:53:58;15.00;85.10
32217;DHT22;67098;51.140;4.088;2023-05-29T01:56:28;15.00;84.60
32217;DHT22;67098;51.140;4.088;2023-05-29T01:58:56;14.90;84.20
32217;DHT22;67098;51.140;4.088;2023-05-29T02:01:22;14.90;84.30
32217;DHT22;67098;51.140;4.088;2023-05-29T02:03:48;14.90;83.90
32217;DHT22;67098;51.140;4.088;2023-05-29T02:06:14;14.90;83.60
32217;DHT22;67098;51.140;4.088;2023-05-29T02:08:40;14.80;83.60
32217;DHT22;67098;51.140;4.088;2023-05-29T02:11:06;14.70;84.10
32217;DHT22;67098;51.140;4.088;2023-05-29T02:13:32;14.70;83.90
32217;DHT22;67098;51.140;4.088;2023-05-29T02:15:58;14.60;83.70
32217;DHT22;67098;51.140;4.088;2023-05-29T02:18:24;14.60;83.80
32217;DHT22;67098;51.140;4.088;2023-05-29T02:20:51;14.60;83.60
32217;DHT22;67098;51.140;4.088;2023-05-29T02:23:16;14.60;83.20
32217;DHT22;67098;51.140;4.088;2023-05-29T02:25:42;14.50;83.60
32217;DHT22;67098;51.140;4.088;2023-05-29T02:28:08;14.60;83.40
32217;DHT22;67098;51.140;4.088;2023-05-29T02:30:34;14.60;83.30
32217;DHT22;67098;51.140;4.088;2023-05-29T02:33:00;14.60;83.20
32217;DHT22;67098;51.140;4.088;2023-05-29T02:35:27;14.50;83.50
32217;DHT22;67098;51.140;4.088;2023-05-29T02:37:53;14.40;83.70
32217;DHT22;67098;51.140;4.088;2023-05-29T02:40:19;14.30;83.70
32217;DHT22;67098;51.140;4.088;2023-05-29T02:42:46;14.50;83.30
32217;DHT22;67098;51.140;4.088;2023-05-29T02:45:12;14.50;83.30
32217;DHT22;67098;51.140;4.088;2023-05-29T02:47:38;14.50;83.00
32217;DHT22;67098;51.140;4.088;2023-05-29T02:50:04;14.50;82.90
32217;DHT22;67098;51.140;4.088;2023-05-29T02:52:31;14.50;82.60
32217;DHT22;67098;51.140;4.088;2023-05-29T02:54:58;14.50;82.80
32217;DHT22;67098;51.140;4.088;2023-05-29T02:57:24;14.30;83.00
32217;DHT22;67098;51.140;4.088;2023-05-29T02:59:50;14.30;83.10
32217;DHT22;67098;51.140;4.088;2023-05-29T03:02:17;14.30;82.80
32217;DHT22;67098;51.140;4.088;2023-05-29T03:04:44;14.40;82.70
32217;DHT22;67098;51.140;4.088;2023-05-29T03:07:10;14.40;82.90
32217;DHT22;67098;51.140;4.088;2023-05-29T03:09:36;14.30;82.90
32217;DHT22;67098;51.140;4.088;2023-05-29T03:12:02;14.40;82.80
32217;DHT22;67098;51.140;4.088;2023-05-29T03:14:28;14.30;82.90
32217;DHT22;67098;51.140;4.088;2023-05-29T03:16:54;14.30;83.10
32217;DHT22;67098;51.140;4.088;2023-05-29T03:19:20;14.30;83.30
32217;DHT22;67098;51.140;4.088;2023-05-29T03:21:46;14.20;83.40
32217;DHT22;67098;51.140;4.088;2023-05-29T03:24:12;14.30;83.10
32217;DHT22;67098;51.140;4.088;2023-05-29T03:26:39;14.20;83.20
32217;DHT22;67098;51.140;4.088;2023-05-29T03:29:05;14.20;83.10
32217;DHT22;67098;51.140;4.088;2023-05-29T03:31:31;14.20;83.30
32217;DHT22;67098;51.140;4.088;2023-05-29T03:33:58;14.10;83.50
32217;DHT22;67098;51.140;4.088;2023-05-29T03:36:24;14.10;83.70
32217;DHT22;67098;51.140;4.088;2023-05-29T03:38:50;14.10;84.50
32217;DHT22;67098;51.140;4.088;2023-05-29T03:41:16;14.10;84.30
32217;DHT22;67098;51.140;4.088;2023-05-29T03:43:41;14.00;84.90
32217;DHT22;67098;51.140;4.088;2023-05-29T03:46:07;13.90;85.10
32217;DHT22;67098;51.140;4.088;2023-05-29T03:48:33;13.90;85.90
32217;DHT22;67098;51.140;4.088;2023-05-29T03:50:59;13.90;85.60
32217;DHT22;67098;51.140;4.088;2023-05-29T03:53:25;13.90;85.40
32217;DHT22;67098;51.140;4.088;2023-05-29T03:55:51;13.90;85.60
32217;DHT22;67098;51.140;4.088;2023-05-29T03:58:17;13.90;86.10
32217;DHT22;67098;51.140;4.088;2023-05-29T04:00:42;13.80;86.40
32217;DHT22;67098;51.140;4.088;2023-05-29T04:03:08;13.80;86.40
32217;DHT22;67098;51.140;4.088;2023-05-29T04:05:34;13.80;86.80
32217;DHT22;67098;51.140;4.088;2023-05-29T04:08:00;13.80;87.40
32217;DHT22;67098;51.140;4.088;2023-05-29T04:10:26;13.80;87.40
32217;DHT22;67098;51.140;4.088;2023-05-29T04:12:52;13.80;87.50
32217;DHT22;67098;51.140;4.088;2023-05-29T04:15:18;13.80;87.10
32217;DHT22;67098;51.140;4.088;2023-05-29T04:17:43;13.90;87.10
32217;DHT22;67098;51.140;4.088;2023-05-29T04:20:09;13.90;87.10
32217;DHT22;67098;51.140;4.088;2023-05-29T04:22:36;14.00;86.80
32217;DHT22;67098;51.140;4.088;2023-05-29T04:25:03;14.10;86.70
32217;DHT22;67098;51.140;4.088;2023-05-29T04:27:32;14.10;86.30
32217;DHT22;67098;51.140;4.088;2023-05-29T04:30:06;14.20;86.20
32217;DHT22;67098;51.140;4.088;2023-05-29T04:32:32;14.20;86.10
32217;DHT22;67098;51.140;4.088;2023-05-29T04:34:59;14.20;86.20
32217;DHT22;67098;51.140;4.088;2023-05-29T04:37:28;14.30;86.00
32217;DHT22;67098;51.140;4.088;2023-05-29T04:39:56;14.30;85.80
32217;DHT22;67098;51.140;4.088;2023-05-29T04:42:23;14.20;85.70
32217;DHT22;67098;51.140;4.088;2023-05-29T04:44:51;14.30;85.60
32217;DHT22;67098;51.140;4.088;2023-05-29T04:47:18;14.40;85.40
32217;DHT22;67098;51.140;4.088;2023-05-29T04:49:45;14.50;85.20
32217;DHT22;67098;51.140;4.088;2023-05-29T04:52:18;14.60;85.00
32217;DHT22;67098;51.140;4.088;2023-05-29T04:54:44;14.70;84.50
32217;DHT22;67098;51.140;4.088;2023-05-29T04:57:09;14.70;84.10
32217;DHT22;67098;51.140;4.088;2023-05-29T04:59:36;14.70;84.00
32217;DHT22;67098;51.140;4.088;2023-05-29T05:02:01;14.80;83.60
32217;DHT22;67098;51.140;4.088;2023-05-29T05:04:27;14.70;83.60
32217;DHT22;67098;51.140;4.088;2023-05-29T05:06:53;14.70;83.90
32217;DHT22;67098;51.140;4.088;2023-05-29T05:09:18;14.70;83.50
32217;DHT22;67098;51.140;4.088;2023-05-29T05:11:44;14.80;83.00
32217;DHT22;67098;51.140;4.088;2023-05-29T05:14:10;14.90;82.40
32217;DHT22;67098;51.140;4.088;2023-05-29T05:16:36;14.80;82.50
32217;DHT22;67098;51.140;4.088;2023-05-29T05:19:01;14.70;82.50
32217;DHT22;67098;51.140;4.088;2023-05-29T05:21:27;14.90;82.10
32217;DHT22;67098;51.140;4.088;2023-05-29T05:23:56;15.00;82.10
32217;DHT22;67098;51.140;4.088;2023-05-29T05:26:22;14.90;81.90
32217;DHT22;67098;51.140;4.088;2023-05-29T05:28:47;14.80;82.10
32217;DHT22;67098;51.140;4.088;2023-05-29T05:31:13;14.90;81.90
32217;DHT22;67098;51.140;4.088;2023-05-29T05:33:39;15.00;81.40
32217;DHT22;67098;51.140;4.088;2023-05-29T05:36:05;15.10;81.30
32217;DHT22;67098;51.140;4.088;2023-05-29T05:38:32;15.10;81.00
32217;DHT22;67098;51.140;4.088;2023-05-29T05:40:58;15.30;80.70
32217;DHT22;67098;51.140;4.088;2023-05-29T05:43:23;15.40;80.00
32217;DHT22;67098;51.140;4.088;2023-05-29T05:45:51;15.50;80.00
32217;DHT22;67098;51.140;4.088;2023-05-29T05:48:17;15.50;79.50
32217;DHT22;67098;51.140;4.088;2023-05-29T05:50:43;15.70;79.10
32217;DHT22;67098;51.140;4.088;2023-05-29T05:53:09;15.70;78.40
32217;DHT22;67098;51.140;4.088;2023-05-29T05:55:34;15.70;77.90
32217;DHT22;67098;51.140;4.088;2023-05-29T05:58:00;15.80;78.10
32217;DHT22;67098;51.140;4.088;2023-05-29T06:00:26;16.00;76.90
32217;DHT22;67098;51.140;4.088;2023-05-29T06:02:52;16.00;76.70
32217;DHT22;67098;51.140;4.088;2023-05-29T06:05:17;16.00;76.30
32217;DHT22;67098;51.140;4.088;2023-05-29T06:07:43;16.10;76.30
32217;DHT22;67098;51.140;4.088;2023-05-29T06:10:09;16.10;76.40
32217;DHT22;67098;51.140;4.088;2023-05-29T06:12:35;16.10;75.70
32217;DHT22;67098;51.140;4.088;2023-05-29T06:15:01;16.30;75.60
32217;DHT22;67098;51.140;4.088;2023-05-29T06:17:29;16.30;75.30
32217;DHT22;67098;51.140;4.088;2023-05-29T06:19:55;16.50;74.80
32217;DHT22;67098;51.140;4.088;2023-05-29T06:22:21;16.60;74.80
32217;DHT22;67098;51.140;4.088;2023-05-29T06:24:46;16.80;74.70
32217;DHT22;67098;51.140;4.088;2023-05-29T06:27:12;16.90;73.20
32217;DHT22;67098;51.140;4.088;2023-05-29T06:29:38;16.90;73.20
32217;DHT22;67098;51.140;4.088;2023-05-29T06:32:04;17.10;73.20
32217;DHT22;67098;51.140;4.088;2023-05-29T06:34:30;17.20;72.30
32217;DHT22;67098;51.140;4.088;2023-05-29T06:36:55;17.20;71.70
32217;DHT22;67098;51.140;4.088;2023-05-29T06:39:21;17.30;71.80
32217;DHT22;67098;51.140;4.088;2023-05-29T06:41:47;17.10;72.00
32217;DHT22;67098;51.140;4.088;2023-05-29T06:44:13;17.30;72.10
32217;DHT22;67098;51.140;4.088;2023-05-29T06:46:39;17.40;70.80
32217;DHT22;67098;51.140;4.088;2023-05-29T06:49:04;17.40;71.00
32217;DHT22;67098;51.140;4.088;2023-05-29T06:51:30;17.50;70.60
32217;DHT22;67098;51.140;4.088;2023-05-29T06:53:58;17.50;69.80
32217;DHT22;67098;51.140;4.088;2023-05-29T06:56:23;17.60;69.50
32217;DHT22;67098;51.140;4.088;2023-05-29T06:58:49;17.70;68.70
32217;DHT22;67098;51.140;4.088;2023-05-29T07:01:15;17.60;68.70
32217;DHT22;67098;51.140;4.088;2023-05-29T07:03:42;17.70;68.50
32217;DHT22;67098;51.140;4.088;2023-05-29T07:06:08;17.80;68.20
32217;DHT22;67098;51.140;4.088;2023-05-29T07:08:34;18.00;68.20
32217;DHT22;67098;51.140;4.088;2023-05-29T07:11:01;18.20;67.80
32217;DHT22;67098;51.140;4.088;2023-05-29T07:13:27;18.40;67.30
32217;DHT22;67098;51.140;4.088;2023-05-29T07:15:53;18.60;67.50
32217;DHT22;67098;51.140;4.088;2023-05-29T07:18:19;18.90;66.40
32217;DHT22;67098;51.140;4.088;2023-05-29T07:20:44;19.00;65.10
32217;DHT22;67098;51.140;4.088;2023-05-29T07:23:10;19.00;64.90
32217;DHT22;67098;51.140;4.088;2023-05-29T07:25:36;19.00;64.90
32217;DHT22;67098;51.140;4.088;2023-05-29T07:28:02;19.10;63.90
32217;DHT22;67098;51.140;4.088;2023-05-29T07:30:27;19.00;63.30
32217;DHT22;67098;51.140;4.088;2023-05-29T07:32:53;19.00;63.60
32217;DHT22;67098;51.140;4.088;2023-05-29T07:35:19;19.10;63.80
32217;DHT22;67098;51.140;4.088;2023-05-29T07:37:45;19.20;63.50
32217;DHT22;67098;51.140;4.088;2023-05-29T07:40:10;19.30;63.20
32217;DHT22;67098;51.140;4.088;2023-05-29T07:42:37;19.50;62.50
32217;DHT22;67098;51.140;4.088;2023-05-29T07:45:03;19.60;62.70
32217;DHT22;67098;51.140;4.088;2023-05-29T07:47:29;19.90;62.80
32217;DHT22;67098;51.140;4.088;2023-05-29T07:49:54;20.00;62.10
32217;DHT22;67098;51.140;4.088;2023-05-29T07:52:20;20.10;60.70
32217;DHT22;67098;51.140;4.088;2023-05-29T07:54:46;20.10;59.60
32217;DHT22;67098;51.140;4.088;2023-05-29T07:57:11;20.20;59.70
32217;DHT22;67098;51.140;4.088;2023-05-29T07:59:40;20.30;59.50
32217;DHT22;67098;51.140;4.088;2023-05-29T08:02:07;20.50;58.40
32217;DHT22;67098;51.140;4.088;2023-05-29T08:04:33;20.50;57.90
32217;DHT22;67098;51.140;4.088;2023-05-29T08:07:02;20.40;58.20
32217;DHT22;67098;51.140;4.088;2023-05-29T08:09:31;20.40;58.30
32217;DHT22;67098;51.140;4.088;2023-05-29T08:11:57;20.50;58.40
32217;DHT22;67098;51.140;4.088;2023-05-29T08:14:23;20.70;58.60
32217;DHT22;67098;51.140;4.088;2023-05-29T08:16:49;21.10;57.80
32217;DHT22;67098;51.140;4.088;2023-05-29T08:19:16;21.30;57.80
32217;DHT22;67098;51.140;4.088;2023-05-29T08:21:41;21.70;57.20
32217;DHT22;67098;51.140;4.088;2023-05-29T08:24:07;21.90;56.70
32217;DHT22;67098;51.140;4.088;2023-05-29T08:26:35;22.20;55.40
32217;DHT22;67098;51.140;4.088;2023-05-29T08:29:01;22.40;55.90
32217;DHT22;67098;51.140;4.088;2023-05-29T08:31:27;22.60;55.50
32217;DHT22;67098;51.140;4.088;2023-05-29T08:33:53;22.70;54.70
32217;DHT22;67098;51.140;4.088;2023-05-29T08:36:19;23.10;54.50
32217;DHT22;67098;51.140;4.088;2023-05-29T08:38:50;23.20;53.00
32217;DHT22;67098;51.140;4.088;2023-05-29T08:42:20;23.30;53.30
32217;DHT22;67098;51.140;4.088;2023-05-29T08:44:15;23.30;52.10
32217;DHT22;67098;51.140;4.088;2023-05-29T08:46:44;23.50;52.90
32217;DHT22;67098;51.140;4.088;2023-05-29T08:49:13;23.40;51.60
32217;DHT22;67098;51.140;4.088;2023-05-29T08:51:44;23.50;52.30
32217;DHT22;67098;51.140;4.088;2023-05-29T08:54:12;23.70;52.60
32217;DHT22;67098;51.140;4.088;2023-05-29T08:56:40;23.90;51.80
32217;DHT22;67098;51.140;4.088;2023-05-29T08:59:07;24.00;51.00
32217;DHT22;67098;51.140;4.088;2023-05-29T09:01:34;23.90;50.20
32217;DHT22;67098;51.140;4.088;2023-05-29T09:04:00;23.90;50.80
32217;DHT22;67098;51.140;4.088;2023-05-29T09:06:26;24.00;51.20
32217;DHT22;67098;51.140;4.088;2023-05-29T09:08:54;24.00;50.40
32217;DHT22;67098;51.140;4.088;2023-05-29T09:11:19;24.10;50.70
32217;DHT22;67098;51.140;4.088;2023-05-29T09:13:46;24.10;50.50
32217;DHT22;67098;51.140;4.088;2023-05-29T09:16:12;24.30;51.30
32217;DHT22;67098;51.140;4.088;2023-05-29T09:18:38;24.60;50.40
32217;DHT22;67098;51.140;4.088;2023-05-29T09:21:07;24.90;50.40
32217;DHT22;67098;51.140;4.088;2023-05-29T09:23:36;25.10;50.90
32217;DHT22;67098;51.140;4.088;2023-05-29T09:26:03;25.30;50.50
32217;DHT22;67098;51.140;4.088;2023-05-29T09:28:30;25.50;49.90
32217;DHT22;67098;51.140;4.088;2023-05-29T09:30:57;25.70;49.60
32217;DHT22;67098;51.140;4.088;2023-05-29T09:33:22;25.60;50.10
32217;DHT22;67098;51.140;4.088;2023-05-29T09:35:49;25.70;49.90
32217;DHT22;67098;51.140;4.088;2023-05-29T09:38:19;25.80;49.10
32217;DHT22;67098;51.140;4.088;2023-05-29T09:40:46;25.80;49.40
32217;DHT22;67098;51.140;4.088;2023-05-29T09:43:16;25.90;48.50
32217;DHT22;67098;51.140;4.088;2023-05-29T09:45:47;26.20;48.50
32217;DHT22;67098;51.140;4.088;2023-05-29T09:48:14;26.30;47.90
32217;DHT22;67098;51.140;4.088;2023-05-29T09:50:40;26.30;47.80
32217;DHT22;67098;51.140;4.088;2023-05-29T09:53:24;26.30;48.20
32217;DHT22;67098;51.140;4.088;2023-05-29T09:55:56;26.50;48.30
32217;DHT22;67098;51.140;4.088;2023-05-29T09:58:24;26.70;48.00
32217;DHT22;67098;51.140;4.088;2023-05-29T10:00:52;26.70;48.00
32217;DHT22;67098;51.140;4.088;2023-05-29T10:03:18;26.60;47.70
32217;DHT22;67098;51.140;4.088;2023-05-29T10:05:50;26.80;47.20
32217;DHT22;67098;51.140;4.088;2023-05-29T10:08:18;27.00;47.10
32217;DHT22;67098;51.140;4.088;2023-05-29T10:10:47;27.30;46.70
32217;DHT22;67098;51.140;4.088;2023-05-29T10:13:14;27.30;46.80
32217;DHT22;67098;51.140;4.088;2023-05-29T10:15:43;27.60;45.70
32217;DHT22;67098;51.140;4.088;2023-05-29T10:18:16;27.80;46.00
32217;DHT22;67098;51.140;4.088;2023-05-29T10:20:50;28.00;45.10
32217;DHT22;67098;51.140;4.088;2023-05-29T10:23:23;28.10;45.00
32217;DHT22;67098;51.140;4.088;2023-05-29T10:25:53;27.90;44.50
32217;DHT22;67098;51.140;4.088;2023-05-29T10:28:23;27.60;45.00
32217;DHT22;67098;51.140;4.088;2023-05-29T10:31:03;27.40;45.40
32217;DHT22;67098;51.140;4.088;2023-05-29T10:36:20;27.50;45.60
32217;DHT22;67098;51.140;4.088;2023-05-29T10:38:48;27.40;45.60
32217;DHT22;67098;51.140;4.088;2023-05-29T10:44:03;27.60;45.20
32217;DHT22;67098;51.140;4.088;2023-05-29T10:49:19;28.10;43.90
32217;DHT22;67098;51.140;4.088;2023-05-29T10:51:45;28.20;44.00
32217;DHT22;67098;51.140;4.088;2023-05-29T10:54:11;28.30;44.10
32217;DHT22;67098;51.140;4.088;2023-05-29T10:56:39;28.30;44.20
32217;DHT22;67098;51.140;4.088;2023-05-29T10:59:07;28.40;44.00
32217;DHT22;67098;51.140;4.088;2023-05-29T11:01:33;28.50;43.50
32217;DHT22;67098;51.140;4.088;2023-05-29T11:06:43;28.90;42.80
32217;DHT22;67098;51.140;4.088;2023-05-29T11:15:08;29.80;43.20
32217;DHT22;67098;51.140;4.088;2023-05-29T11:25:24;30.30;41.60
32217;DHT22;67098;51.140;4.088;2023-05-29T11:27:50;30.30;41.90
32217;DHT22;67098;51.140;4.088;2023-05-29T11:30:19;30.60;42.00
32217;DHT22;67098;51.140;4.088;2023-05-29T11:32:45;30.50;41.30
32217;DHT22;67098;51.140;4.088;2023-05-29T11:35:13;30.60;42.00
32217;DHT22;67098;51.140;4.088;2023-05-29T11:37:40;30.80;40.70
32217;DHT22;67098;51.140;4.088;2023-05-29T11:40:09;30.80;41.20
32217;DHT22;67098;51.140;4.088;2023-05-29T11:42:35;31.10;41.40
32217;DHT22;67098;51.140;4.088;2023-05-29T11:45:21;31.40;41.00
32217;DHT22;67098;51.140;4.088;2023-05-29T11:48:01;31.20;41.00
32217;DHT22;67098;51.140;4.088;2023-05-29T11:50:28;31.00;40.70
32217;DHT22;67098;51.140;4.088;2023-05-29T11:52:56;30.80;41.00
32217;DHT22;67098;51.140;4.088;2023-05-29T11:55:22;30.70;41.40
32217;DHT22;67098;51.140;4.088;2023-05-29T11:57:50;30.50;41.50
32217;DHT22;67098;51.140;4.088;2023-05-29T12:00:17;30.60;41.60
32217;DHT22;67098;51.140;4.088;2023-05-29T12:02:44;30.80;41.60
32217;DHT22;67098;51.140;4.088;2023-05-29T12:05:13;30.90;40.40
32217;DHT22;67098;51.140;4.088;2023-05-29T12:07:52;30.90;41.00
32217;DHT22;67098;51.140;4.088;2023-05-29T12:10:21;31.10;40.70
32217;DHT22;67098;51.140;4.088;2023-05-29T12:12:55;31.10;40.50
32217;DHT22;67098;51.140;4.088;2023-05-29T12:15:22;31.30;40.70
32217;DHT22;67098;51.140;4.088;2023-05-29T12:17:49;31.40;40.50
32217;DHT22;67098;51.140;4.088;2023-05-29T12:20:15;31.20;39.90
32217;DHT22;67098;51.140;4.088;2023-05-29T12:22:43;31.20;40.20
32217;DHT22;67098;51.140;4.088;2023-05-29T12:25:14;31.30;40.20
32217;DHT22;67098;51.140;4.088;2023-05-29T12:27:42;31.20;40.50
32217;DHT22;67098;51.140;4.088;2023-05-29T12:30:10;31.50;40.30
32217;DHT22;67098;51.140;4.088;2023-05-29T12:32:40;31.80;39.70
32217;DHT22;67098;51.140;4.088;2023-05-29T12:35:15;31.90;39.80
32217;DHT22;67098;51.140;4.088;2023-05-29T12:37:57;31.70;39.20
32217;DHT22;67098;51.140;4.088;2023-05-29T12:40:28;31.50;39.90
32217;DHT22;67098;51.140;4.088;2023-05-29T12:45:32;31.40;39.90
32217;DHT22;67098;51.140;4.088;2023-05-29T12:48:03;31.00;39.50
32217;DHT22;67098;51.140;4.088;2023-05-29T12:50:35;30.90;39.50
32217;DHT22;67098;51.140;4.088;2023-05-29T12:55:31;31.00;40.10
32217;DHT22;67098;51.140;4.088;2023-05-29T12:58:03;31.40;40.30
32217;DHT22;67098;51.140;4.088;2023-05-29T13:00:29;31.60;39.60
32217;DHT22;67098;51.140;4.088;2023-05-29T13:02:56;31.70;39.70
32217;DHT22;67098;51.140;4.088;2023-05-29T13:05:22;31.80;39.70
32217;DHT22;67098;51.140;4.088;2023-05-29T13:07:49;31.90;39.70
32217;DHT22;67098;51.140;4.088;2023-05-29T13:10:16;32.20;39.80
32217;DHT22;67098;51.140;4.088;2023-05-29T13:12:42;32.10;38.50
32217;DHT22;67098;51.140;4.088;2023-05-29T13:15:10;31.90;38.00
32217;DHT22;67098;51.140;4.088;2023-05-29T13:17:36;31.70;38.70
32217;DHT22;67098;51.140;4.088;2023-05-29T13:20:02;31.40;39.00
32217;DHT22;67098;51.140;4.088;2023-05-29T13:22:28;31.20;39.70
32217;DHT22;67098;51.140;4.088;2023-05-29T13:24:58;30.90;39.70
32217;DHT22;67098;51.140;4.088;2023-05-29T13:27:25;30.70;39.80
32217;DHT22;67098;51.140;4.088;2023-05-29T13:29:51;31.00;39.70
32217;DHT22;67098;51.140;4.088;2023-05-29T13:32:17;31.10;39.20
32217;DHT22;67098;51.140;4.088;2023-05-29T13:34:43;31.10;39.30
32217;DHT22;67098;51.140;4.088;2023-05-29T13:37:09;31.20;39.70
32217;DHT22;67098;51.140;4.088;2023-05-29T13:39:34;31.40;39.10
32217;DHT22;67098;51.140;4.088;2023-05-29T13:42:00;31.10;39.20
32217;DHT22;67098;51.140;4.088;2023-05-29T13:44:26;31.00;39.30
32217;DHT22;67098;51.140;4.088;2023-05-29T13:46:52;30.80;39.50
32217;DHT22;67098;51.140;4.088;2023-05-29T13:49:19;30.80;39.40
32217;DHT22;67098;51.140;4.088;2023-05-29T13:51:44;30.80;39.00
32217;DHT22;67098;51.140;4.088;2023-05-29T13:54:12;30.80;39.20
32217;DHT22;67098;51.140;4.088;2023-05-29T13:56:38;30.80;39.20
32217;DHT22;67098;51.140;4.088;2023-05-29T13:59:03;30.70;39.30
32217;DHT22;67098;51.140;4.088;2023-05-29T14:01:32;30.80;39.20
32217;DHT22;67098;51.140;4.088;2023-05-29T14:03:59;30.70;39.30
32217;DHT22;67098;51.140;4.088;2023-05-29T14:06:26;30.60;39.30
32217;DHT22;67098;51.140;4.088;2023-05-29T14:08:52;30.60;39.20
32217;DHT22;67098;51.140;4.088;2023-05-29T14:11:18;30.60;39.20
32217;DHT22;67098;51.140;4.088;2023-05-29T14:13:44;30.40;39.10
32217;DHT22;67098;51.140;4.088;2023-05-29T14:16:09;30.40;38.60
32217;DHT22;67098;51.140;4.088;2023-05-29T14:18:35;30.30;38.90
32217;DHT22;67098;51.140;4.088;2023-05-29T14:21:01;30.30;38.40
32217;DHT22;67098;51.140;4.088;2023-05-29T14:23:27;30.10;38.30
32217;DHT22;67098;51.140;4.088;2023-05-29T14:25:53;30.00;37.80
32217;DHT22;67098;51.140;4.088;2023-05-29T14:28:18;30.00;38.70
32217;DHT22;67098;51.140;4.088;2023-05-29T14:30:44;30.20;39.10
32217;DHT22;67098;51.140;4.088;2023-05-29T14:33:10;30.20;38.80
32217;DHT22;67098;51.140;4.088;2023-05-29T14:35:35;29.90;38.60
32217;DHT22;67098;51.140;4.088;2023-05-29T14:38:01;30.00;38.80
32217;DHT22;67098;51.140;4.088;2023-05-29T14:40:27;29.90;38.80
32217;DHT22;67098;51.140;4.088;2023-05-29T14:42:54;29.90;38.20
32217;DHT22;67098;51.140;4.088;2023-05-29T14:45:20;29.90;38.20
32217;DHT22;67098;51.140;4.088;2023-05-29T14:47:45;29.90;38.20
32217;DHT22;67098;51.140;4.088;2023-05-29T14:50:11;29.90;38.70
32217;DHT22;67098;51.140;4.088;2023-05-29T14:52:37;29.80;37.90
32217;DHT22;67098;51.140;4.088;2023-05-29T14:55:04;29.80;38.50
32217;DHT22;67098;51.140;4.088;2023-05-29T14:57:31;29.70;38.20
32217;DHT22;67098;51.140;4.088;2023-05-29T15:00:01;29.40;38.50
32217;DHT22;67098;51.140;4.088;2023-05-29T15:02:26;29.30;38.60
32217;DHT22;67098;51.140;4.088;2023-05-29T15:04:52;29.30;39.30
32217;DHT22;67098;51.140;4.088;2023-05-29T15:07:18;29.30;39.40
32217;DHT22;67098;51.140;4.088;2023-05-29T15:09:44;29.20;39.80
32217;DHT22;67098;51.140;4.088;2023-05-29T15:12:10;29.10;40.00
32217;DHT22;67098;51.140;4.088;2023-05-29T15:14:36;28.90;39.50
32217;DHT22;67098;51.140;4.088;2023-05-29T15:17:03;28.70;40.60
32217;DHT22;67098;51.140;4.088;2023-05-29T15:19:30;28.60;40.00
32217;DHT22;67098;51.140;4.088;2023-05-29T15:21:57;28.30;40.90
32217;DHT22;67098;51.140;4.088;2023-05-29T15:24:23;28.10;41.30
32217;DHT22;67098;51.140;4.088;2023-05-29T15:26:48;27.60;40.80
32217;DHT22;67098;51.140;4.088;2023-05-29T15:29:15;27.30;41.60
32217;DHT22;67098;51.140;4.088;2023-05-29T15:31:41;27.30;42.00
32217;DHT22;67098;51.140;4.088;2023-05-29T15:34:07;27.10;42.70
32217;DHT22;67098;51.140;4.088;2023-05-29T15:36:33;27.20;42.80
32217;DHT22;67098;51.140;4.088;2023-05-29T15:38:58;27.10;43.00
32217;DHT22;67098;51.140;4.088;2023-05-29T15:41:24;27.10;42.60
32217;DHT22;67098;51.140;4.088;2023-05-29T15:43:55;27.20;43.20
32217;DHT22;67098;51.140;4.088;2023-05-29T15:46:21;27.00;43.10
32217;DHT22;67098;51.140;4.088;2023-05-29T15:48:47;26.60;43.70
32217;DHT22;67098;51.140;4.088;2023-05-29T15:51:12;26.50;44.20
32217;DHT22;67098;51.140;4.088;2023-05-29T15:53:38;26.40;44.30
32217;DHT22;67098;51.140;4.088;2023-05-29T15:56:04;26.20;44.10
32217;DHT22;67098;51.140;4.088;2023-05-29T15:58:30;26.30;43.80
32217;DHT22;67098;51.140;4.088;2023-05-29T16:00:55;26.40;44.20
32217;DHT22;67098;51.140;4.088;2023-05-29T16:03:22;26.40;43.70